createdAt,value
2022-09-01T00:00:02.433Z,78.98
2022-09-01T00:05:01.287Z,80.83
2022-09-01T00:10:01.752Z,79.87
2022-09-01T00:15:01.633Z,81.02
2022-09-01T00:20:01.409Z,81.76
2022-09-01T00:25:01.299Z,83.55
2022-09-01T00:30:01.673Z,83.5
2022-09-01T00:35:01.170Z,81.79
2022-09-01T00:40:01.387Z,84.15
2022-09-01T00:45:01.761Z,83.35
2022-09-01T00:50:01.320Z,83.8
2022-09-01T00:55:01.249Z,86.08
2022-09-01T01:00:01.383Z,85.18
2022-09-01T01:05:01.926Z,85.18
2022-09-01T01:10:01.174Z,85.85
2022-09-01T01:15:01.987Z,86.4
2022-09-01T01:20:02.023Z,86.66
2022-09-01T01:25:01.857Z,85.74
2022-09-01T01:30:01.630Z,85.86
2022-09-01T01:35:01.895Z,86.75
2022-09-01T01:40:01.177Z,87.04
2022-09-01T01:45:01.393Z,86.31
2022-09-01T01:50:01.327Z,84.69
2022-09-01T01:55:05.091Z,84.53
2022-09-01T02:00:01.889Z,85.73
2022-09-01T02:05:01.705Z,86.72
2022-09-01T02:10:01.826Z,88.76
2022-09-01T02:15:01.700Z,88.55
2022-09-01T02:20:01.481Z,89.23
2022-09-01T02:25:01.488Z,89.28
2022-09-01T02:30:02.141Z,89.86
2022-09-01T02:35:01.798Z,90.74
2022-09-01T02:40:01.664Z,91.03
2022-09-01T02:45:02.665Z,91.43
2022-09-01T02:50:02.115Z,91.93
2022-09-01T02:55:01.916Z,92.22
2022-09-01T03:00:01.167Z,92.32
2022-09-01T03:05:01.505Z,92.31
2022-09-01T03:10:01.195Z,92.73
2022-09-01T03:15:01.942Z,92.83
2022-09-01T03:20:01.283Z,92.81
2022-09-01T03:25:01.225Z,92.96
2022-09-01T03:30:01.695Z,93.31
2022-09-01T03:35:01.206Z,93.64
2022-09-01T03:40:01.351Z,94.06
2022-09-01T03:45:01.239Z,95.01
2022-09-01T03:50:01.691Z,95.18
2022-09-01T03:55:01.802Z,95.19
2022-09-01T04:00:01.373Z,95.61
2022-09-01T04:05:02.727Z,95.81
2022-09-01T04:10:01.579Z,95.92
2022-09-01T04:15:01.465Z,96.05
2022-09-01T04:20:02.044Z,96.89
2022-09-01T04:25:02.043Z,97.1
2022-09-01T04:30:01.351Z,96.98
2022-09-01T04:35:01.812Z,97.33
2022-09-01T04:40:01.352Z,97.53
2022-09-01T04:45:09.906Z,97.22
2022-09-01T04:50:01.982Z,97.06
2022-09-01T04:55:01.578Z,96.86
2022-09-01T05:00:01.898Z,97.39
2022-09-01T05:05:01.189Z,97.95
2022-09-01T05:10:02.027Z,97.79
2022-09-01T05:15:01.995Z,95.3
2022-09-01T05:20:01.515Z,95.79
2022-09-01T05:25:01.920Z,98.09
2022-09-01T05:30:01.230Z,98.14
2022-09-01T05:35:01.270Z,98.52
2022-09-01T05:40:01.921Z,95.92
2022-09-01T05:45:01.594Z,98.38
2022-09-01T05:50:01.617Z,95.95
2022-09-01T05:55:01.201Z,98.37
2022-09-01T06:00:02.126Z,98.18
2022-09-01T06:05:01.526Z,97.89
2022-09-01T06:10:01.537Z,96.6
2022-09-01T06:15:01.247Z,97.45
2022-09-01T06:20:01.933Z,96.42
2022-09-01T06:25:03.107Z,95.63
2022-09-01T06:30:01.702Z,94.54
2022-09-01T06:35:01.932Z,92.17
2022-09-01T06:40:01.992Z,91.86
2022-09-01T06:45:02.055Z,89.68
2022-09-01T06:50:01.211Z,89.83
2022-09-01T06:55:07.129Z,89.33
2022-09-01T07:00:01.679Z,87.98
2022-09-01T07:05:02.072Z,86.1
2022-09-01T07:10:18.623Z,85.18
2022-09-01T07:16:37.357Z,78.62
2022-09-01T07:20:23.810Z,78.44
2022-09-01T07:25:13.660Z,77.3
2022-09-01T07:30:02.025Z,75.44
2022-09-01T07:35:01.832Z,73.81
2022-09-01T07:43:10.037Z,74.36
2022-09-01T07:45:26.155Z,70.26
2022-09-01T07:50:24.827Z,70.86
2022-09-01T07:55:01.478Z,69.62
2022-09-01T08:00:01.649Z,68.89
2022-09-01T08:05:01.961Z,69.42
2022-09-01T08:10:01.866Z,65.84
2022-09-01T08:15:41.596Z,66.41
2022-09-01T08:20:03.201Z,66.36
2022-09-01T08:25:01.834Z,67.04
2022-09-01T08:30:01.908Z,64.36
2022-09-01T08:35:02.355Z,63.97
2022-09-01T08:40:01.942Z,66.15
2022-09-01T08:45:02.001Z,68.71
2022-09-01T08:50:05.827Z,64.74
2022-09-01T08:55:01.917Z,66.53
2022-09-01T09:00:01.945Z,64.89
2022-09-01T09:05:01.623Z,64.87
2022-09-01T09:10:01.912Z,65.9
2022-09-01T09:15:02.196Z,62.97
2022-09-01T09:20:02.273Z,62.83
2022-09-01T09:25:02.798Z,63.1
2022-09-01T09:30:07.587Z,64
2022-09-01T09:35:02.028Z,64.6
2022-09-01T09:40:01.963Z,61.89
2022-09-01T09:45:02.007Z,60.85
2022-09-01T09:50:01.330Z,61.53
2022-09-01T09:55:01.804Z,59.78
2022-09-01T10:00:02.066Z,60.67
2022-09-01T10:05:02.556Z,59.99
2022-09-01T10:10:02.811Z,60.77
2022-09-01T10:15:04.674Z,59.42
2022-09-01T10:20:01.761Z,59.77
2022-09-01T10:25:01.482Z,60.72
2022-09-01T10:30:19.204Z,58.64
2022-09-01T10:35:02.425Z,59.3
2022-09-01T10:40:03.055Z,59.53
2022-09-01T10:45:02.058Z,59.72
2022-09-01T10:50:07.483Z,59.79
2022-09-01T10:55:01.741Z,60.37
2022-09-01T11:00:01.338Z,61.52
2022-09-01T11:05:02.392Z,60.42
2022-09-01T11:10:11.480Z,62.49
2022-09-01T11:15:01.975Z,63.18
2022-09-01T11:20:01.707Z,61.14
2022-09-01T11:25:11.763Z,61.17
2022-09-01T11:30:02.142Z,61.18
2022-09-01T11:35:01.696Z,62.45
2022-09-01T11:40:01.377Z,61.54
2022-09-01T11:45:01.265Z,62.76
2022-09-01T11:50:01.608Z,60.99
2022-09-01T11:55:01.675Z,60.49
2022-09-01T12:00:01.535Z,59.2
2022-09-01T12:05:01.794Z,61.36
2022-09-01T12:10:01.896Z,60.63
2022-09-01T12:15:06.290Z,58.02
2022-09-01T12:20:01.991Z,59.27
2022-09-01T12:25:01.629Z,58.28
2022-09-01T12:30:01.699Z,59.02
2022-09-01T12:35:07.203Z,58.33
2022-09-01T12:40:01.319Z,57.95
2022-09-01T12:45:02.029Z,56.78
2022-09-01T12:50:03.415Z,57.41
2022-09-01T12:55:01.518Z,56.5
2022-09-01T13:00:01.569Z,57.21
2022-09-01T13:05:01.694Z,54.95
2022-09-01T13:10:01.299Z,55.65
2022-09-01T13:15:01.624Z,53.53
2022-09-01T13:20:02.206Z,52.45
2022-09-01T13:25:01.364Z,51.77
2022-09-01T13:30:01.814Z,53.96
2022-09-01T13:35:01.957Z,53.93
2022-09-01T13:40:01.845Z,53.82
2022-09-01T13:45:01.884Z,51.04
2022-09-01T13:50:10.052Z,52.48
2022-09-01T13:55:01.262Z,53.48
2022-09-01T14:00:01.566Z,52.59
2022-09-01T14:05:01.475Z,53.96
2022-09-01T14:10:01.744Z,54.44
2022-09-01T14:15:17.116Z,54.07
2022-09-01T14:20:02.109Z,53.9
2022-09-01T14:25:01.988Z,53.8
2022-09-01T14:30:01.541Z,50.93
2022-09-01T14:35:01.841Z,51.5
2022-09-01T14:40:02.037Z,52.7
2022-09-01T14:45:02.102Z,52.89
2022-09-01T14:50:02.108Z,54.18
2022-09-01T14:55:02.003Z,52.16
2022-09-01T15:00:01.283Z,52.59
2022-09-01T15:05:01.334Z,50.02
2022-09-01T15:10:02.007Z,50.2
2022-09-01T15:15:01.863Z,46.58
2022-09-01T15:20:01.186Z,46.17
2022-09-01T15:25:01.694Z,46.17
2022-09-01T15:30:01.347Z,47.28
2022-09-01T15:35:01.197Z,45.83
2022-09-01T15:40:02.104Z,45.9
2022-09-01T15:45:01.645Z,46.99
2022-09-01T15:50:01.749Z,48.45
2022-09-01T15:55:01.397Z,48.79
2022-09-01T16:00:01.887Z,49.08
2022-09-01T16:05:01.791Z,51.93
2022-09-01T16:10:01.962Z,47.99
2022-09-01T16:15:02.159Z,47.6
2022-09-01T16:20:02.068Z,47.88
2022-09-01T16:25:02.046Z,46.29
2022-09-01T16:30:02.010Z,46.43
2022-09-01T16:35:02.144Z,46.27
2022-09-01T16:40:02.282Z,47.06
2022-09-01T16:45:01.909Z,46.47
2022-09-01T16:50:01.715Z,46.85
2022-09-01T16:55:02.018Z,46.51
2022-09-01T17:00:02.470Z,46.37
2022-09-01T17:05:02.150Z,49.39
2022-09-01T17:10:02.319Z,49.25
2022-09-01T17:15:02.495Z,49.61
2022-09-01T17:20:02.051Z,50.64
2022-09-01T17:25:06.929Z,53.15
2022-09-01T17:30:02.225Z,51.56
2022-09-01T17:35:02.398Z,53.14
2022-09-01T17:40:02.111Z,54.15
2022-09-01T17:45:02.031Z,54.91
2022-09-01T17:50:02.357Z,56.63
2022-09-01T17:55:02.138Z,58.53
2022-09-01T18:00:01.916Z,55.86
2022-09-01T18:05:07.368Z,55.3
2022-09-01T18:10:01.856Z,54.56
2022-09-01T18:15:02.594Z,54.83
2022-09-01T18:20:02.331Z,55.79
2022-09-01T18:25:02.174Z,58.02
2022-09-01T18:30:02.485Z,59.29
2022-09-01T18:35:02.474Z,60.97
2022-09-01T18:40:01.541Z,62.19
2022-09-01T18:45:01.348Z,62.03
2022-09-01T18:50:03.957Z,62.46
2022-09-01T18:55:01.483Z,62.04
2022-09-01T19:00:01.891Z,62.77
2022-09-01T19:05:01.479Z,62.4
2022-09-01T19:10:02.487Z,63.65
2022-09-01T19:15:02.111Z,61.8
2022-09-01T19:20:02.658Z,60.75
2022-09-01T19:25:02.597Z,61.31
2022-09-01T19:30:01.466Z,59.74
2022-09-01T19:35:02.388Z,62.39
2022-09-01T19:40:01.938Z,61.39
2022-09-01T19:45:07.017Z,59.59
2022-09-01T19:50:02.448Z,59.11
2022-09-01T19:55:01.912Z,57.4
2022-09-01T20:00:01.194Z,56.44
2022-09-01T20:05:01.459Z,55.18
2022-09-01T20:10:01.630Z,54.26
2022-09-01T20:15:01.515Z,53.44
2022-09-01T20:20:01.894Z,52.39
2022-09-01T20:25:02.107Z,52.35
2022-09-01T20:30:01.773Z,51.65
2022-09-01T20:35:01.902Z,53.14
2022-09-01T20:40:02.672Z,53.89
2022-09-01T20:45:01.810Z,53.8
2022-09-01T20:50:01.944Z,53.33
2022-09-01T20:55:02.776Z,53.35
2022-09-01T21:00:02.372Z,53.47
2022-09-01T21:05:01.286Z,53.69
2022-09-01T21:10:01.747Z,53.41
2022-09-01T21:15:01.537Z,53.78
2022-09-01T21:20:02.239Z,54.18
2022-09-01T21:25:02.132Z,54.47
2022-09-01T21:30:01.513Z,54.64
2022-09-01T21:35:01.609Z,54.7
2022-09-01T21:40:02.295Z,54.77
2022-09-01T21:45:01.231Z,54.6
2022-09-01T21:50:01.672Z,54.6
2022-09-01T21:55:01.669Z,54.39
2022-09-01T22:00:02.383Z,54.53
2022-09-01T22:05:02.308Z,54.55
2022-09-01T22:10:01.898Z,54.92
2022-09-01T22:15:01.966Z,54.99
2022-09-01T22:20:01.336Z,55
2022-09-01T22:25:01.537Z,55.39
2022-09-01T22:30:02.106Z,55.93
2022-09-01T22:35:01.697Z,56.53
2022-09-01T22:40:02.018Z,57.02
2022-09-01T22:45:01.844Z,57.27
2022-09-01T22:50:01.513Z,57.53
2022-09-01T22:55:01.932Z,57.87
2022-09-01T23:00:01.264Z,57.95
2022-09-01T23:05:02.089Z,58.18
2022-09-01T23:10:01.644Z,58.51
2022-09-01T23:15:01.802Z,58.82
2022-09-01T23:20:01.690Z,59.49
2022-09-01T23:25:01.486Z,59.65
2022-09-01T23:30:01.634Z,60.27
2022-09-01T23:35:01.265Z,60.75
2022-09-01T23:40:01.526Z,60.96
2022-09-01T23:45:01.334Z,61.57
2022-09-01T23:50:01.824Z,61.36
2022-09-01T23:55:01.991Z,61.62
